createdAt,value
2019-02-26T00:04:43.551Z,94.40
2019-02-26T00:07:29.845Z,94.80
2019-02-26T00:10:14.324Z,95.10
2019-02-26T00:13:04.186Z,95.10
2019-02-26T00:15:48.600Z,95.20
2019-02-26T00:18:33.545Z,95.30
2019-02-26T00:24:05.058Z,95.60
2019-02-26T00:26:49.863Z,95.60
2019-02-26T00:29:36.430Z,95.70
2019-02-26T00:32:22.646Z,95.90
2019-02-26T00:35:08.905Z,96.00
2019-02-26T00:37:56.694Z,96.40
2019-02-26T00:40:43.707Z,96.30
2019-02-26T00:43:30.633Z,95.60
2019-02-26T00:46:15.208Z,95.50
2019-02-26T00:49:01.466Z,95.60
2019-02-26T00:51:48.288Z,95.80
2019-02-26T00:54:38.710Z,96.60
2019-02-26T00:57:27.155Z,96.60
2019-02-26T01:00:12.334Z,96.60
2019-02-26T01:02:57.351Z,97.00
2019-02-26T01:05:43.132Z,97.20
2019-02-26T01:08:27.755Z,97.80
2019-02-26T01:11:13.549Z,98.10
2019-02-26T01:14:00.082Z,98.20
2019-02-26T01:16:46.038Z,98.10
2019-02-26T01:19:34.041Z,97.80
2019-02-26T01:22:18.851Z,97.70
2019-02-26T01:28:27.074Z,97.70
2019-02-26T01:34:25.546Z,98.10
2019-02-26T01:37:16.161Z,98.30
2019-02-26T01:40:01.387Z,98.30
2019-02-26T01:42:51.939Z,98.50
2019-02-26T01:45:40.440Z,98.60
2019-02-26T01:58:02.289Z,98.50
2019-02-26T02:01:32.556Z,98.00
2019-02-26T02:07:24.272Z,97.90
2019-02-26T02:10:14.763Z,97.70
2019-02-26T02:13:02.438Z,98.00
2019-02-26T02:18:51.354Z,98.20
2019-02-26T02:21:41.520Z,98.60
2019-02-26T02:24:26.137Z,98.90
2019-02-26T02:27:19.575Z,99.10
2019-02-26T02:30:14.259Z,99.40
2019-02-26T02:32:57.563Z,99.70
2019-02-26T02:35:48.910Z,99.90
2019-02-26T02:38:38.584Z,99.90
2019-02-26T02:41:23.208Z,99.90
2019-02-26T02:44:07.905Z,99.90
2019-02-26T02:46:52.382Z,99.90
2019-02-26T02:49:39.928Z,99.90
2019-02-26T02:52:32.465Z,99.90
2019-02-26T02:55:22.025Z,99.90
2019-02-26T02:58:06.871Z,99.90
2019-02-26T03:00:38.541Z,99.90
2019-02-26T03:03:22.968Z,99.90
2019-02-26T03:06:13.610Z,99.90
2019-02-26T03:08:58.504Z,99.70
2019-02-26T03:11:44.538Z,99.20
2019-02-26T03:14:33.831Z,99.20
2019-02-26T03:17:43.600Z,99.60
2019-02-26T03:20:31.835Z,99.80
2019-02-26T03:28:53.919Z,99.90
2019-02-26T03:31:41.022Z,99.90
2019-02-26T03:34:25.814Z,99.90
2019-02-26T03:37:15.151Z,99.90
2019-02-26T03:40:02.871Z,99.90
2019-02-26T03:42:46.836Z,99.90
2019-02-26T03:45:31.456Z,99.90
2019-02-26T03:48:21.007Z,99.90
2019-02-26T03:51:10.316Z,99.90
2019-02-26T03:53:59.376Z,99.90
2019-02-26T03:56:48.927Z,99.90
2019-02-26T03:59:34.384Z,99.90
2019-02-26T04:02:20.224Z,99.90
2019-02-26T04:05:06.878Z,99.90
2019-02-26T04:07:53.258Z,99.90
2019-02-26T04:10:42.134Z,99.90
2019-02-26T04:13:33.208Z,99.90
2019-02-26T04:16:18.006Z,99.90
2019-02-26T04:19:08.975Z,99.90
2019-02-26T04:25:11.934Z,99.90
2019-02-26T04:27:57.016Z,99.90
2019-02-26T04:30:44.481Z,99.90
2019-02-26T04:33:30.335Z,99.90
2019-02-26T04:36:16.930Z,99.90
2019-02-26T04:39:03.277Z,99.90
2019-02-26T04:41:49.909Z,99.90
2019-02-26T04:44:40.125Z,99.90
2019-02-26T04:47:26.777Z,99.90
2019-02-26T04:50:11.036Z,99.90
2019-02-26T04:53:01.498Z,99.90
2019-02-26T04:55:46.690Z,99.90
2019-02-26T05:07:52.201Z,99.90
2019-02-26T05:10:36.665Z,99.90
2019-02-26T05:13:22.114Z,99.90
2019-02-26T05:16:06.559Z,99.90
2019-02-26T05:18:51.754Z,99.90
2019-02-26T05:21:24.468Z,99.90
2019-02-26T05:27:30.110Z,99.90
2019-02-26T05:30:22.143Z,99.90
2019-02-26T05:33:11.591Z,99.90
2019-02-26T05:35:56.665Z,99.90
2019-02-26T05:38:44.506Z,99.90
2019-02-26T05:41:33.377Z,99.90
2019-02-26T05:44:17.719Z,99.90
2019-02-26T05:47:01.914Z,99.90
2019-02-26T05:49:47.194Z,99.90
2019-02-26T05:52:36.736Z,99.90
2019-02-26T05:55:25.485Z,99.90
2019-02-26T05:58:21.506Z,99.90
2019-02-26T06:01:14.368Z,99.90
2019-02-26T06:04:07.675Z,99.90
2019-02-26T06:06:55.509Z,99.90
2019-02-26T06:09:42.224Z,99.90
2019-02-26T06:12:35.519Z,99.90
2019-02-26T06:15:28.850Z,99.90
2019-02-26T06:18:21.099Z,99.90
2019-02-26T06:21:07.206Z,99.90
2019-02-26T06:23:57.439Z,99.90
2019-02-26T06:26:43.127Z,99.90
2019-02-26T06:29:29.987Z,99.90
2019-02-26T06:32:15.442Z,99.90
2019-02-26T06:35:00.323Z,99.90
2019-02-26T06:37:47.303Z,99.90
2019-02-26T06:40:34.488Z,99.90
2019-02-26T06:43:17.423Z,99.90
2019-02-26T06:46:02.754Z,99.90
2019-02-26T06:48:47.132Z,99.90
2019-02-26T06:51:31.058Z,99.90
2019-02-26T06:54:15.488Z,99.90
2019-02-26T06:57:00.905Z,99.90
2019-02-26T06:59:44.912Z,99.90
2019-02-26T07:05:32.461Z,99.90
2019-02-26T07:08:18.971Z,99.90
2019-02-26T07:11:04.738Z,99.90
2019-02-26T07:13:53.730Z,99.90
2019-02-26T07:16:42.719Z,99.90
2019-02-26T07:22:31.109Z,99.90
2019-02-26T07:25:16.621Z,99.90
2019-02-26T07:28:02.932Z,99.90
2019-02-26T07:30:37.478Z,99.90
2019-02-26T07:33:27.413Z,99.90
2019-02-26T07:36:02.373Z,99.90
2019-02-26T07:38:53.947Z,99.90
2019-02-26T07:41:44.603Z,99.90
2019-02-26T07:44:39.873Z,99.90
2019-02-26T07:51:04.756Z,99.90
2019-02-26T07:53:51.023Z,99.90
2019-02-26T07:56:35.146Z,99.90
2019-02-26T07:59:27.479Z,99.90
2019-02-26T08:02:08.640Z,99.90
2019-02-26T08:04:58.540Z,99.70
2019-02-26T08:07:44.439Z,98.70
2019-02-26T08:10:28.396Z,97.80
2019-02-26T08:13:12.869Z,96.90
2019-02-26T08:19:11.081Z,96.20
2019-02-26T08:21:57.103Z,95.70
2019-02-26T08:24:48.594Z,95.10
2019-02-26T08:27:37.996Z,94.30
2019-02-26T08:30:26.142Z,93.80
2019-02-26T08:33:35.279Z,93.40
2019-02-26T08:39:30.192Z,92.50
2019-02-26T08:42:14.094Z,92.10
2019-02-26T08:44:58.406Z,91.60
2019-02-26T08:47:47.143Z,90.90
2019-02-26T08:50:33.317Z,90.60
2019-02-26T08:56:33.283Z,90.00
2019-02-26T08:59:17.616Z,88.70
2019-02-26T09:02:01.973Z,87.80
2019-02-26T09:04:51.150Z,87.60
2019-02-26T09:07:40.477Z,87.20
2019-02-26T09:10:36.274Z,86.50
2019-02-26T09:16:28.319Z,85.30
2019-02-26T09:19:13.444Z,84.40
2019-02-26T09:27:32.144Z,83.50
2019-02-26T09:30:17.802Z,82.80
2019-02-26T09:33:08.264Z,82.60
2019-02-26T09:36:01.183Z,82.10
2019-02-26T09:38:46.882Z,80.70
2019-02-26T09:41:35.540Z,80.50
2019-02-26T09:44:26.269Z,79.90
2019-02-26T09:47:12.045Z,80.00
2019-02-26T09:49:58.356Z,79.70
2019-02-26T09:52:45.278Z,78.90
2019-02-26T09:55:35.957Z,78.30
2019-02-26T09:58:25.365Z,77.70
2019-02-26T10:01:20.961Z,77.70
2019-02-26T10:04:05.930Z,77.70
2019-02-26T10:06:50.360Z,77.60
2019-02-26T10:12:24.832Z,77.50
2019-02-26T10:15:11.837Z,77.00
2019-02-26T10:18:01.932Z,76.20
2019-02-26T10:20:52.351Z,76.20
2019-02-26T10:23:39.090Z,75.40
2019-02-26T10:26:26.165Z,75.30
2019-02-26T10:29:10.121Z,74.60
2019-02-26T10:31:56.102Z,74.50
2019-02-26T10:34:43.250Z,74.30
2019-02-26T10:37:26.690Z,74.40
2019-02-26T10:40:14.342Z,73.80
2019-02-26T10:42:57.432Z,73.70
2019-02-26T10:45:44.801Z,73.00
2019-02-26T10:48:31.456Z,69.60
2019-02-26T10:51:16.744Z,66.40
2019-02-26T10:54:05.701Z,65.50
2019-02-26T11:06:18.096Z,59.60
2019-02-26T11:09:01.857Z,57.40
2019-02-26T11:11:49.526Z,55.90
2019-02-26T11:20:45.802Z,54.30
2019-02-26T11:23:31.187Z,53.70
2019-02-26T11:26:19.819Z,54.20
2019-02-26T11:29:10.048Z,53.40
2019-02-26T11:31:58.591Z,53.60
2019-02-26T11:34:47.176Z,52.20
2019-02-26T11:37:36.380Z,51.70
2019-02-26T11:40:24.793Z,52.10
2019-02-26T11:49:31.001Z,50.70
2019-02-26T11:55:32.474Z,50.00
2019-02-26T12:01:20.684Z,49.90
2019-02-26T12:04:08.510Z,50.00
2019-02-26T12:13:09.546Z,51.10
2019-02-26T12:19:08.317Z,49.90
2019-02-26T12:22:00.860Z,50.30
2019-02-26T12:24:53.052Z,50.20
2019-02-26T12:27:43.807Z,50.00
2019-02-26T12:36:29.889Z,48.40
2019-02-26T12:39:16.158Z,48.30
2019-02-26T12:42:03.637Z,47.70
2019-02-26T12:44:57.238Z,47.90
2019-02-26T12:48:15.664Z,48.30
2019-02-26T12:50:52.233Z,47.80
2019-02-26T12:53:49.115Z,47.90
2019-02-26T12:56:37.470Z,47.60
2019-02-26T12:59:21.147Z,47.10
2019-02-26T13:04:21.424Z,47.10
2019-02-26T13:07:31.022Z,47.20
2019-02-26T13:10:05.404Z,47.20
2019-02-26T13:12:38.253Z,46.90
2019-02-26T13:18:26.991Z,46.90
2019-02-26T13:24:17.910Z,47.00
2019-02-26T13:51:43.982Z,46.90
2019-02-26T13:54:27.885Z,46.20
2019-02-26T13:57:15.610Z,46.30
2019-02-26T14:03:11.278Z,46.70
2019-02-26T14:09:05.206Z,46.00
2019-02-26T14:21:06.709Z,45.20
2019-02-26T14:36:14.435Z,45.90
2019-02-26T14:45:24.593Z,45.40
2019-02-26T14:48:10.574Z,45.70
2019-02-26T14:53:57.469Z,45.30
2019-02-26T14:56:45.173Z,45.80
2019-02-26T15:02:40.587Z,46.10
2019-02-26T15:05:27.048Z,45.70
2019-02-26T15:08:10.730Z,45.30
2019-02-26T15:10:54.818Z,45.50
2019-02-26T15:13:39.041Z,45.40
2019-02-26T15:16:28.529Z,45.30
2019-02-26T15:19:11.526Z,44.90
2019-02-26T15:21:57.772Z,45.30
2019-02-26T15:24:40.793Z,45.40
2019-02-26T15:27:35.767Z,45.70
2019-02-26T15:33:11.702Z,45.80
2019-02-26T15:35:57.167Z,45.80
2019-02-26T15:38:47.632Z,45.90
2019-02-26T15:41:31.104Z,46.20
2019-02-26T15:44:16.061Z,46.10
2019-02-26T15:50:06.736Z,46.70
2019-02-26T15:52:54.351Z,46.90
2019-02-26T15:55:43.046Z,47.50
2019-02-26T15:58:27.850Z,47.60
2019-02-26T16:01:15.790Z,48.90
2019-02-26T16:03:48.761Z,50.10
2019-02-26T16:06:37.333Z,51.60
2019-02-26T16:09:26.099Z,52.60
2019-02-26T16:12:15.575Z,53.50
2019-02-26T16:15:07.910Z,54.70
2019-02-26T16:17:58.963Z,55.20
2019-02-26T16:20:49.730Z,55.30
2019-02-26T16:23:38.823Z,56.10
2019-02-26T16:26:45.859Z,56.60
2019-02-26T16:29:31.808Z,57.10
2019-02-26T16:35:17.505Z,57.80
2019-02-26T16:38:07.961Z,58.30
2019-02-26T16:44:02.120Z,59.30
2019-02-26T16:47:17.673Z,60.30
2019-02-26T16:49:44.459Z,60.10
2019-02-26T16:55:36.957Z,61.10
2019-02-26T16:58:26.682Z,61.70
2019-02-26T17:01:12.550Z,62.40
2019-02-26T17:03:57.728Z,63.40
2019-02-26T17:06:42.935Z,64.20
2019-02-26T17:09:29.540Z,64.60
2019-02-26T17:12:15.247Z,65.40
2019-02-26T17:15:02.011Z,66.60
2019-02-26T17:20:47.829Z,67.60
2019-02-26T17:23:36.316Z,68.50
2019-02-26T17:26:24.249Z,69.00
2019-02-26T17:32:17.284Z,70.60
2019-02-26T17:35:07.798Z,70.80
2019-02-26T17:37:54.340Z,71.60
2019-02-26T17:40:59.092Z,72.20
2019-02-26T17:43:43.173Z,72.40
2019-02-26T17:46:30.287Z,73.40
2019-02-26T17:49:20.207Z,73.80
2019-02-26T17:52:08.030Z,73.90
2019-02-26T17:57:58.103Z,74.90
2019-02-26T18:03:50.582Z,75.00
2019-02-26T18:06:37.912Z,75.30
2019-02-26T18:12:26.337Z,76.10
2019-02-26T18:15:00.976Z,76.30
2019-02-26T18:17:43.446Z,76.30
2019-02-26T18:23:38.665Z,77.30
2019-02-26T18:26:18.434Z,78.40
2019-02-26T18:29:06.233Z,78.90
2019-02-26T18:31:56.737Z,78.90
2019-02-26T18:34:47.267Z,79.50
2019-02-26T18:37:33.578Z,79.20
2019-02-26T18:40:19.432Z,79.30
2019-02-26T18:43:04.626Z,79.40
2019-02-26T18:48:40.981Z,80.30
2019-02-26T18:51:28.203Z,80.80
2019-02-26T18:54:13.683Z,81.10
2019-02-26T18:56:57.858Z,81.80
2019-02-26T18:59:45.764Z,82.10
2019-02-26T19:02:24.986Z,82.20
2019-02-26T19:08:16.711Z,82.80
2019-02-26T19:11:16.769Z,82.90
2019-02-26T19:17:06.227Z,83.30
2019-02-26T19:20:17.400Z,83.70
2019-02-26T19:23:02.178Z,84.20
2019-02-26T19:25:48.116Z,84.20
2019-02-26T19:31:36.375Z,84.30
2019-02-26T19:34:21.127Z,84.40
2019-02-26T19:40:00.812Z,85.10
2019-02-26T19:42:53.448Z,85.50
2019-02-26T19:45:44.934Z,85.70
2019-02-26T19:48:32.209Z,86.10
2019-02-26T19:51:16.710Z,86.60
2019-02-26T19:54:01.260Z,86.70
2019-02-26T19:56:47.250Z,87.10
2019-02-26T19:59:31.286Z,87.40
2019-02-26T20:02:16.434Z,87.90
2019-02-26T20:05:04.647Z,88.30
2019-02-26T20:07:53.231Z,88.50
2019-02-26T20:14:11.644Z,89.10
2019-02-26T20:16:54.000Z,89.20
2019-02-26T20:19:57.403Z,89.50
2019-02-26T20:22:47.293Z,89.70
2019-02-26T20:25:31.081Z,89.90
2019-02-26T20:28:15.673Z,90.20
2019-02-26T20:31:05.766Z,90.30
2019-02-26T20:33:39.350Z,90.90
2019-02-26T20:36:29.157Z,91.10
2019-02-26T20:39:17.012Z,91.40
2019-02-26T20:42:04.217Z,91.50
2019-02-26T20:44:58.798Z,91.70
2019-02-26T20:47:51.566Z,91.70
2019-02-26T20:50:35.509Z,91.90
2019-02-26T20:53:20.443Z,92.10
2019-02-26T20:56:05.321Z,92.30
2019-02-26T20:58:50.860Z,92.50
2019-02-26T21:01:40.080Z,92.60
2019-02-26T21:04:47.850Z,92.80
2019-02-26T21:10:33.450Z,93.50
2019-02-26T21:13:12.866Z,93.70
2019-02-26T21:15:58.045Z,93.90
2019-02-26T21:18:43.941Z,93.70
2019-02-26T21:21:31.367Z,93.70
2019-02-26T21:24:21.581Z,94.20
2019-02-26T21:33:33.067Z,94.10
2019-02-26T21:36:22.761Z,94.50
2019-02-26T21:39:01.841Z,94.60
2019-02-26T21:41:47.963Z,94.80
2019-02-26T21:44:37.069Z,95.00
2019-02-26T21:47:22.644Z,95.00
2019-02-26T21:50:13.279Z,95.20
2019-02-26T21:56:15.800Z,95.90
2019-02-26T22:01:59.195Z,96.10
2019-02-26T22:04:44.343Z,96.30
2019-02-26T22:07:27.928Z,96.60
2019-02-26T22:10:16.187Z,96.60
2019-02-26T22:13:04.943Z,97.00
2019-02-26T22:15:53.375Z,97.20
2019-02-26T22:18:42.957Z,97.20
2019-02-26T22:21:28.210Z,97.30
2019-02-26T22:24:14.966Z,97.50
2019-02-26T22:27:00.113Z,97.30
2019-02-26T22:29:47.962Z,97.30
2019-02-26T22:32:38.847Z,97.60
2019-02-26T22:35:29.407Z,97.60
2019-02-26T22:38:15.506Z,97.60
2019-02-26T22:44:03.250Z,97.90
2019-02-26T22:46:49.660Z,97.90
2019-02-26T22:49:53.856Z,98.00
2019-02-26T22:52:35.568Z,98.20
2019-02-26T22:55:19.477Z,98.30
2019-02-26T22:58:05.435Z,98.30
2019-02-26T23:00:54.408Z,98.50
2019-02-26T23:03:45.887Z,98.50
2019-02-26T23:06:42.257Z,98.40
2019-02-26T23:09:30.415Z,98.50
2019-02-26T23:12:16.160Z,98.70
2019-02-26T23:15:00.958Z,98.80
2019-02-26T23:17:34.231Z,99.00
2019-02-26T23:20:21.034Z,99.30
2019-02-26T23:23:09.378Z,99.20
2019-02-26T23:25:55.296Z,99.20
2019-02-26T23:28:44.003Z,99.10
2019-02-26T23:31:33.374Z,98.50
2019-02-26T23:34:24.701Z,98.00
2019-02-26T23:37:09.847Z,98.00
2019-02-26T23:39:54.228Z,97.70
2019-02-26T23:42:40.755Z,97.60
2019-02-26T23:51:39.976Z,98.10
2019-02-26T23:54:24.550Z,98.40
2019-02-26T23:57:08.559Z,98.60
2019-02-26T23:59:54.074Z,99.10
